createdAt,value
2019-02-06T00:02:20.591Z,75.37
2019-02-06T00:04:47.649Z,75.33
2019-02-06T00:07:14.686Z,75.35
2019-02-06T00:09:41.738Z,75.28
2019-02-06T00:12:08.780Z,75.15
2019-02-06T00:14:36.122Z,74.92
2019-02-06T00:17:03.340Z,75.02
2019-02-06T00:19:30.358Z,74.52
2019-02-06T00:21:57.391Z,74.33
2019-02-06T00:24:24.462Z,74.53
2019-02-06T00:26:51.509Z,74.82
2019-02-06T00:29:18.561Z,74.88
2019-02-06T00:31:45.574Z,74.94
2019-02-06T00:34:12.803Z,74.80
2019-02-06T00:36:39.823Z,74.60
2019-02-06T00:39:08.307Z,74.52
2019-02-06T00:41:35.336Z,74.25
2019-02-06T00:44:02.366Z,74.16
2019-02-06T00:46:29.504Z,74.19
2019-02-06T00:48:56.567Z,74.43
2019-02-06T00:51:23.602Z,74.34
2019-02-06T00:53:50.647Z,74.14
2019-02-06T00:56:17.696Z,73.89
2019-02-06T00:58:44.725Z,73.66
2019-02-06T01:01:11.865Z,73.48
2019-02-06T01:03:38.898Z,73.12
2019-02-06T01:06:06.048Z,73.05
2019-02-06T01:08:33.087Z,73.11
2019-02-06T01:11:00.432Z,73.23
2019-02-06T01:13:27.470Z,73.71
2019-02-06T01:15:54.517Z,73.85
2019-02-06T01:18:21.554Z,73.83
2019-02-06T01:20:48.605Z,73.71
2019-02-06T01:23:16.506Z,73.69
2019-02-06T01:25:43.623Z,73.73
2019-02-06T01:28:10.672Z,73.66
2019-02-06T01:30:45.519Z,73.67
2019-02-06T01:33:12.821Z,73.83
2019-02-06T01:35:49.663Z,74.00
2019-02-06T01:38:08.796Z,73.61
2019-02-06T01:40:35.831Z,73.73
2019-02-06T01:43:02.872Z,73.82
2019-02-06T01:45:29.909Z,73.50
2019-02-06T01:47:57.269Z,73.35
2019-02-06T01:50:24.314Z,73.64
2019-02-06T01:52:51.368Z,73.74
2019-02-06T01:55:18.392Z,73.87
2019-02-06T01:57:45.443Z,73.88
2019-02-06T02:00:14.753Z,73.76
2019-02-06T02:02:41.797Z,73.77
2019-02-06T02:05:09.048Z,73.57
2019-02-06T02:07:36.072Z,73.60
2019-02-06T02:10:04.286Z,73.65
2019-02-06T02:12:31.427Z,73.66
2019-02-06T02:14:58.447Z,73.67
2019-02-06T02:17:25.474Z,73.52
2019-02-06T02:19:52.535Z,73.57
2019-02-06T02:22:19.574Z,73.67
2019-02-06T02:24:46.819Z,73.73
2019-02-06T02:27:13.870Z,73.77
2019-02-06T02:29:40.921Z,73.47
2019-02-06T02:32:07.951Z,73.53
2019-02-06T02:34:34.968Z,73.56
2019-02-06T02:37:01.980Z,73.61
2019-02-06T02:39:29.037Z,73.92
2019-02-06T02:41:56.408Z,73.85
2019-02-06T02:44:23.452Z,73.75
2019-02-06T02:46:50.510Z,73.65
2019-02-06T02:49:17.622Z,73.81
2019-02-06T02:51:44.690Z,73.77
2019-02-06T02:54:11.722Z,73.44
2019-02-06T02:56:38.759Z,73.50
2019-02-06T02:59:05.783Z,73.63
2019-02-06T03:01:44.089Z,73.29
2019-02-06T03:04:31.907Z,73.34
2019-02-06T03:06:58.935Z,73.52
2019-02-06T03:09:25.976Z,73.42
2019-02-06T03:11:53.400Z,73.44
2019-02-06T03:14:20.454Z,73.70
2019-02-06T03:16:47.505Z,73.63
2019-02-06T03:19:14.515Z,73.49
2019-02-06T03:21:41.538Z,73.46
2019-02-06T03:24:08.568Z,73.28
2019-02-06T03:26:35.602Z,73.38
2019-02-06T03:29:02.950Z,73.31
2019-02-06T03:31:30.303Z,73.41
2019-02-06T03:33:57.344Z,73.13
2019-02-06T03:36:24.383Z,73.52
2019-02-06T03:38:52.361Z,73.55
2019-02-06T03:41:19.406Z,73.72
2019-02-06T03:43:46.422Z,74.11
2019-02-06T03:46:13.475Z,74.26
2019-02-06T03:48:40.802Z,74.18
2019-02-06T03:51:07.835Z,74.27
2019-02-06T03:53:34.888Z,74.32
2019-02-06T03:56:01.937Z,74.25
2019-02-06T03:58:28.993Z,73.89
2019-02-06T04:00:56.033Z,73.62
2019-02-06T04:03:23.061Z,73.49
2019-02-06T04:05:50.097Z,73.69
2019-02-06T04:08:17.500Z,73.76
2019-02-06T04:10:44.531Z,73.79
2019-02-06T04:13:11.569Z,73.75
2019-02-06T04:15:38.622Z,73.39
2019-02-06T04:18:05.663Z,73.46
2019-02-06T04:20:32.741Z,73.48
2019-02-06T04:22:59.781Z,72.82
2019-02-06T04:25:26.838Z,73.31
2019-02-06T04:27:53.872Z,73.75
2019-02-06T04:30:20.889Z,73.41
2019-02-06T04:32:48.039Z,73.21
2019-02-06T04:35:15.167Z,73.32
2019-02-06T04:37:42.181Z,73.38
2019-02-06T04:40:11.913Z,73.31
2019-02-06T04:42:38.933Z,73.24
2019-02-06T04:45:07.002Z,73.15
2019-02-06T04:47:34.043Z,73.00
2019-02-06T04:50:01.114Z,73.01
2019-02-06T04:52:28.111Z,73.00
2019-02-06T04:54:55.162Z,72.74
2019-02-06T04:57:22.199Z,72.21
2019-02-06T04:59:49.238Z,72.83
2019-02-06T05:02:16.280Z,73.00
2019-02-06T05:04:43.497Z,73.21
2019-02-06T05:07:18.602Z,72.74
2019-02-06T05:09:39.500Z,72.88
2019-02-06T05:12:09.525Z,73.30
2019-02-06T05:14:35.498Z,73.15
2019-02-06T05:17:02.571Z,73.86
2019-02-06T05:19:29.572Z,74.17
2019-02-06T05:21:56.921Z,74.19
2019-02-06T05:24:23.949Z,74.01
2019-02-06T05:26:51.085Z,73.89
2019-02-06T05:29:18.144Z,74.81
2019-02-06T05:31:45.215Z,77.44
2019-02-06T05:34:12.256Z,78.04
2019-02-06T05:36:39.326Z,77.00
2019-02-06T05:39:07.346Z,73.97
2019-02-06T05:41:34.690Z,73.16
2019-02-06T05:44:01.753Z,73.03
2019-02-06T05:46:28.782Z,73.17
2019-02-06T05:48:55.820Z,73.53
2019-02-06T05:51:22.870Z,73.56
2019-02-06T05:53:49.917Z,72.89
2019-02-06T05:56:16.992Z,73.64
2019-02-06T05:58:44.031Z,73.98
2019-02-06T06:01:11.357Z,73.75
2019-02-06T06:03:38.412Z,73.23
2019-02-06T06:06:05.455Z,73.92
2019-02-06T06:08:32.499Z,74.33
2019-02-06T06:10:59.531Z,74.37
2019-02-06T06:13:26.576Z,74.29
2019-02-06T06:15:53.639Z,74.24
2019-02-06T06:18:21.972Z,74.53
2019-02-06T06:20:49.395Z,74.65
2019-02-06T06:23:16.778Z,74.79
2019-02-06T06:25:43.949Z,74.54
2019-02-06T06:28:10.979Z,74.61
2019-02-06T06:30:38.048Z,74.72
2019-02-06T06:33:05.079Z,74.67
2019-02-06T06:35:32.115Z,74.83
2019-02-06T06:38:02.881Z,74.93
2019-02-06T06:40:28.136Z,75.09
2019-02-06T06:42:55.171Z,74.87
2019-02-06T06:45:22.742Z,75.02
2019-02-06T06:47:50.006Z,75.00
2019-02-06T06:50:18.769Z,75.11
2019-02-06T06:52:45.822Z,75.09
2019-02-06T06:55:13.514Z,75.06
2019-02-06T06:57:40.963Z,75.11
2019-02-06T07:00:12.268Z,75.08
2019-02-06T07:02:39.333Z,74.99
2019-02-06T07:05:06.814Z,74.67
2019-02-06T07:07:33.869Z,74.82
2019-02-06T07:10:00.937Z,74.87
2019-02-06T07:12:27.959Z,74.61
2019-02-06T07:14:55.312Z,74.45
2019-02-06T07:17:22.349Z,74.10
2019-02-06T07:19:49.397Z,74.24
2019-02-06T07:22:16.454Z,74.15
2019-02-06T07:24:43.508Z,75.77
2019-02-06T07:27:10.605Z,78.90
2019-02-06T07:29:37.654Z,79.81
2019-02-06T07:32:04.695Z,80.56
2019-02-06T07:34:31.937Z,80.17
2019-02-06T07:36:58.982Z,79.32
2019-02-06T07:39:26.015Z,77.85
2019-02-06T07:41:53.088Z,70.14
2019-02-06T07:44:20.126Z,66.82
2019-02-06T07:46:47.191Z,65.83
2019-02-06T07:49:14.233Z,66.03
2019-02-06T07:51:41.292Z,66.61
2019-02-06T07:54:08.328Z,67.34
2019-02-06T07:56:35.391Z,68.00
2019-02-06T07:59:02.444Z,68.38
2019-02-06T08:01:29.470Z,68.71
2019-02-06T08:03:56.502Z,67.80
2019-02-06T08:06:23.539Z,68.99
2019-02-06T08:08:50.574Z,69.71
2019-02-06T08:11:17.605Z,69.82
2019-02-06T08:13:44.662Z,70.24
2019-02-06T08:16:11.701Z,70.54
2019-02-06T08:18:38.843Z,70.54
2019-02-06T08:21:05.896Z,70.42
2019-02-06T08:23:32.935Z,70.33
2019-02-06T08:25:59.978Z,70.35
2019-02-06T08:28:26.995Z,70.42
2019-02-06T08:30:54.453Z,70.11
2019-02-06T08:33:21.483Z,70.41
2019-02-06T08:35:48.521Z,70.65
2019-02-06T08:38:15.551Z,70.39
2019-02-06T08:40:42.609Z,70.24
2019-02-06T08:43:09.747Z,70.37
2019-02-06T08:45:36.791Z,70.58
2019-02-06T08:48:04.011Z,70.53
2019-02-06T08:50:31.190Z,70.32
2019-02-06T08:52:58.218Z,70.20
2019-02-06T08:55:26.729Z,69.90
2019-02-06T08:57:53.991Z,69.98
2019-02-06T09:00:26.296Z,69.98
2019-02-06T09:02:53.439Z,69.95
2019-02-06T09:05:20.508Z,69.52
2019-02-06T09:07:47.843Z,69.59
2019-02-06T09:10:16.385Z,69.68
2019-02-06T09:12:43.441Z,69.35
2019-02-06T09:15:11.209Z,68.92
2019-02-06T09:17:38.241Z,68.40
2019-02-06T09:20:08.612Z,68.16
2019-02-06T09:22:35.653Z,68.14
2019-02-06T09:25:03.201Z,67.62
2019-02-06T09:27:30.266Z,66.95
2019-02-06T09:29:57.326Z,66.89
2019-02-06T09:32:24.378Z,66.54
2019-02-06T09:34:51.434Z,66.75
2019-02-06T09:37:18.462Z,66.99
2019-02-06T09:39:45.537Z,66.86
2019-02-06T09:42:12.606Z,66.45
2019-02-06T09:44:39.778Z,66.08
2019-02-06T09:47:06.809Z,65.81
2019-02-06T09:49:33.869Z,65.90
2019-02-06T09:52:00.907Z,66.11
2019-02-06T09:54:27.967Z,65.84
2019-02-06T09:56:55.011Z,66.06
2019-02-06T09:59:22.064Z,65.76
2019-02-06T10:01:49.109Z,65.91
2019-02-06T10:04:16.170Z,65.95
2019-02-06T10:06:43.194Z,65.61
2019-02-06T10:09:10.253Z,65.67
2019-02-06T10:11:37.304Z,65.54
2019-02-06T10:14:04.356Z,65.40
2019-02-06T10:16:31.408Z,65.01
2019-02-06T10:18:58.440Z,64.47
2019-02-06T10:21:25.699Z,64.36
2019-02-06T10:23:52.790Z,64.50
2019-02-06T10:26:19.881Z,65.52
2019-02-06T10:28:46.939Z,65.40
2019-02-06T10:31:14.005Z,66.24
2019-02-06T10:33:41.068Z,66.45
2019-02-06T10:36:08.132Z,66.45
2019-02-06T10:38:35.180Z,66.16
2019-02-06T10:41:04.564Z,65.72
2019-02-06T10:43:35.064Z,65.32
2019-02-06T10:46:00.366Z,65.18
2019-02-06T10:48:27.420Z,65.57
2019-02-06T10:50:54.474Z,65.67
2019-02-06T10:53:21.644Z,64.70
2019-02-06T10:55:48.686Z,64.79
2019-02-06T10:58:16.039Z,64.40
2019-02-06T11:00:46.259Z,63.86
2019-02-06T11:03:13.322Z,64.55
2019-02-06T11:05:40.567Z,64.72
2019-02-06T11:08:07.607Z,64.36
2019-02-06T11:10:34.692Z,64.12
2019-02-06T11:13:02.052Z,64.23
2019-02-06T11:15:29.627Z,63.90
2019-02-06T11:17:56.765Z,63.88
2019-02-06T11:20:24.320Z,63.77
2019-02-06T11:22:51.367Z,63.75
2019-02-06T11:25:18.426Z,65.14
2019-02-06T11:27:45.481Z,64.31
2019-02-06T11:30:15.371Z,63.34
2019-02-06T11:32:42.542Z,62.66
2019-02-06T11:35:09.955Z,62.22
2019-02-06T11:37:37.004Z,61.86
2019-02-06T11:40:06.147Z,61.72
2019-02-06T11:42:33.189Z,61.70
2019-02-06T11:45:00.239Z,61.51
2019-02-06T11:47:27.323Z,61.81
2019-02-06T11:49:56.578Z,62.06
2019-02-06T11:52:23.876Z,61.75
2019-02-06T11:54:50.955Z,61.92
2019-02-06T11:57:18.043Z,61.87
2019-02-06T11:59:45.110Z,61.76
2019-02-06T12:02:13.215Z,61.41
2019-02-06T12:04:40.425Z,61.64
2019-02-06T12:07:07.495Z,61.64
2019-02-06T12:09:34.846Z,61.35
2019-02-06T12:12:01.916Z,60.93
2019-02-06T12:14:29.007Z,61.51
2019-02-06T12:16:56.064Z,61.51
2019-02-06T12:19:23.143Z,61.82
2019-02-06T12:21:50.192Z,62.06
2019-02-06T12:24:17.271Z,62.04
2019-02-06T12:26:44.336Z,61.16
2019-02-06T12:29:11.929Z,61.16
2019-02-06T12:31:39.026Z,61.55
2019-02-06T12:34:06.062Z,62.15
2019-02-06T12:36:33.108Z,61.79
2019-02-06T12:39:00.174Z,61.98
2019-02-06T12:41:27.253Z,62.72
2019-02-06T12:43:54.310Z,62.62
2019-02-06T12:46:21.360Z,63.30
2019-02-06T12:48:48.428Z,63.81
2019-02-06T12:51:15.498Z,63.97
2019-02-06T12:53:42.532Z,64.36
2019-02-06T12:56:09.612Z,64.34
2019-02-06T12:58:36.700Z,64.28
2019-02-06T13:01:04.506Z,63.86
2019-02-06T13:03:31.576Z,63.84
2019-02-06T13:05:58.614Z,63.51
2019-02-06T13:08:25.670Z,62.92
2019-02-06T13:10:52.751Z,62.82
2019-02-06T13:13:19.838Z,63.09
2019-02-06T13:15:47.561Z,62.90
2019-02-06T13:18:14.689Z,62.76
2019-02-06T13:20:41.751Z,62.66
2019-02-06T13:23:09.679Z,62.58
2019-02-06T13:25:36.768Z,62.53
2019-02-06T13:28:04.401Z,62.57
2019-02-06T13:30:33.773Z,62.96
2019-02-06T13:33:00.873Z,63.03
2019-02-06T13:35:27.963Z,63.03
2019-02-06T13:37:55.023Z,62.75
2019-02-06T13:40:22.794Z,63.03
2019-02-06T13:42:49.871Z,63.03
2019-02-06T13:45:22.214Z,63.15
2019-02-06T13:47:49.391Z,63.23
2019-02-06T13:50:22.121Z,63.54
2019-02-06T13:52:45.761Z,63.69
2019-02-06T13:55:14.586Z,63.79
2019-02-06T13:57:41.711Z,63.86
2019-02-06T14:00:14.619Z,63.80
2019-02-06T14:02:42.117Z,64.08
2019-02-06T14:05:09.555Z,64.12
2019-02-06T14:07:36.629Z,64.00
2019-02-06T14:10:04.477Z,63.76
2019-02-06T14:12:31.540Z,63.50
2019-02-06T14:14:58.611Z,63.51
2019-02-06T14:17:25.690Z,63.97
2019-02-06T14:19:53.164Z,64.07
2019-02-06T14:22:20.260Z,64.11
2019-02-06T14:25:05.696Z,64.14
2019-02-06T14:28:00.668Z,64.15
2019-02-06T14:30:48.361Z,63.89
2019-02-06T14:33:46.944Z,64.28
2019-02-06T14:36:50.465Z,64.35
2019-02-06T14:39:30.711Z,64.50
2019-02-06T14:42:32.224Z,64.50
2019-02-06T14:45:28.304Z,64.44
2019-02-06T14:48:35.076Z,65.05
2019-02-06T14:51:11.739Z,65.05
2019-02-06T14:54:20.645Z,65.26
2019-02-06T14:57:15.996Z,65.26
2019-02-06T15:00:26.938Z,65.74
2019-02-06T15:03:25.540Z,66.09
2019-02-06T15:06:34.752Z,67.27
2019-02-06T15:09:35.946Z,69.49
2019-02-06T15:12:44.961Z,73.83
2019-02-06T15:16:05.701Z,69.94
2019-02-06T15:18:48.545Z,64.54
2019-02-06T15:22:04.820Z,64.54
2019-02-06T15:25:01.961Z,64.83
2019-02-06T15:28:03.030Z,65.81
2019-02-06T15:31:23.901Z,66.52
2019-02-06T15:34:28.010Z,67.14
2019-02-06T15:37:36.073Z,67.51
2019-02-06T15:40:36.851Z,67.71
2019-02-06T15:43:19.485Z,67.78
2019-02-06T15:46:16.885Z,68.31
2019-02-06T15:49:28.777Z,68.81
2019-02-06T15:52:18.978Z,68.78
2019-02-06T15:55:36.915Z,69.48
2019-02-06T15:58:44.731Z,69.52
2019-02-06T16:01:34.643Z,69.64
2019-02-06T16:04:41.890Z,70.12
2019-02-06T16:07:35.801Z,69.97
2019-02-06T16:10:48.033Z,70.45
2019-02-06T16:13:39.264Z,70.67
2019-02-06T16:16:53.892Z,70.73
2019-02-06T16:20:05.969Z,71.04
2019-02-06T16:23:04.407Z,71.33
2019-02-06T16:26:07.191Z,71.31
2019-02-06T16:28:48.632Z,71.49
2019-02-06T16:31:56.399Z,71.46
2019-02-06T16:34:41.860Z,71.36
2019-02-06T16:37:28.620Z,71.40
2019-02-06T16:40:29.893Z,71.49
2019-02-06T16:43:33.028Z,71.73
2019-02-06T16:46:42.489Z,71.78
2019-02-06T16:49:52.957Z,71.61
2019-02-06T16:53:03.469Z,71.59
2019-02-06T16:56:16.002Z,71.79
2019-02-06T16:59:15.370Z,72.08
2019-02-06T17:02:18.740Z,72.31
2019-02-06T17:05:30.784Z,72.42
2019-02-06T17:08:16.354Z,72.22
2019-02-06T17:10:58.680Z,72.28
2019-02-06T17:14:00.137Z,72.30
2019-02-06T17:17:14.286Z,72.74
2019-02-06T17:20:34.684Z,72.74
2019-02-06T17:23:45.525Z,72.57
2019-02-06T17:26:33.142Z,72.72
2019-02-06T17:29:52.005Z,72.53
2019-02-06T17:33:12.946Z,72.78
2019-02-06T17:36:10.806Z,72.99
2019-02-06T17:39:09.964Z,72.63
2019-02-06T17:42:00.381Z,72.97
2019-02-06T17:44:50.684Z,73.21
2019-02-06T17:47:55.934Z,73.37
2019-02-06T17:51:08.416Z,73.13
2019-02-06T17:53:38.500Z,73.32
2019-02-06T17:56:06.527Z,73.38
2019-02-06T17:58:54.262Z,73.31
2019-02-06T18:04:27.969Z,73.32
2019-02-06T18:06:55.613Z,73.28
2019-02-06T18:09:22.997Z,73.48
2019-02-06T18:11:51.531Z,73.59
2019-02-06T18:17:21.906Z,73.60
2019-02-06T18:19:49.524Z,73.61
2019-02-06T19:20:59.234Z,73.79
2019-02-06T19:23:26.566Z,74.21
2019-02-06T19:26:21.512Z,73.95
2019-02-06T19:28:48.741Z,74.08
2019-02-06T19:31:16.066Z,74.31
2019-02-06T19:33:44.280Z,74.33
2019-02-06T19:36:12.646Z,74.47
2019-02-06T19:42:02.482Z,74.59
2019-02-06T19:44:32.500Z,74.11
2019-02-06T19:46:59.921Z,74.33
2019-02-06T19:49:27.873Z,74.29
2019-02-06T19:51:56.624Z,74.45
2019-02-06T19:54:26.032Z,74.29
2019-02-06T19:56:54.965Z,74.58
2019-02-06T19:59:22.698Z,74.51
2019-02-06T20:01:50.388Z,74.36
2019-02-06T20:04:18.269Z,74.27
2019-02-06T20:06:57.990Z,74.23
2019-02-06T20:09:25.749Z,74.18
2019-02-06T20:11:53.342Z,74.46
2019-02-06T20:14:21.201Z,74.37
2019-02-06T20:16:48.594Z,74.48
2019-02-06T20:19:16.751Z,74.35
2019-02-06T20:21:46.104Z,74.02
2019-02-06T20:24:13.539Z,73.91
2019-02-06T20:26:41.947Z,73.90
2019-02-06T20:29:09.314Z,74.34
2019-02-06T20:31:36.940Z,74.62
2019-02-06T20:34:05.658Z,74.83
2019-02-06T20:36:33.298Z,75.11
2019-02-06T20:39:03.115Z,75.57
2019-02-06T20:41:30.366Z,75.55
2019-02-06T20:43:57.504Z,75.53
2019-02-06T20:46:24.837Z,75.51
2019-02-06T20:48:57.391Z,75.46
2019-02-06T20:51:24.596Z,75.36
2019-02-06T20:53:52.002Z,75.20
2019-02-06T20:56:22.839Z,75.23
2019-02-06T20:58:52.635Z,75.05
2019-02-06T21:01:20.149Z,75.15
2019-02-06T21:03:47.675Z,75.17
2019-02-06T21:06:14.887Z,75.14
2019-02-06T21:08:42.073Z,75.15
2019-02-06T21:11:10.091Z,75.08
2019-02-06T21:13:37.287Z,75.06
2019-02-06T21:16:04.790Z,74.96
2019-02-06T21:18:32.049Z,74.58
2019-02-06T21:20:59.106Z,74.37
2019-02-06T21:23:27.000Z,74.21
2019-02-06T21:25:54.388Z,74.28
2019-02-06T21:28:21.415Z,74.20
2019-02-06T21:30:48.591Z,74.33
2019-02-06T21:33:15.783Z,74.48
2019-02-06T21:35:43.084Z,74.65
2019-02-06T21:38:10.157Z,74.78
2019-02-06T21:40:37.231Z,74.94
2019-02-06T21:43:04.780Z,74.93
2019-02-06T21:45:31.857Z,74.78
2019-02-06T21:47:59.254Z,74.89
2019-02-06T21:50:46.041Z,74.92
2019-02-06T21:53:13.064Z,74.83
2019-02-06T21:55:40.159Z,74.53
2019-02-06T22:00:53.768Z,74.45
2019-02-06T22:03:21.093Z,74.55
2019-02-06T22:05:48.142Z,74.89
2019-02-06T22:08:15.151Z,75.22
2019-02-06T22:10:42.244Z,75.36
2019-02-06T22:13:09.260Z,75.41
2019-02-06T22:15:36.829Z,75.44
2019-02-06T22:18:03.811Z,75.25
2019-02-06T22:20:31.132Z,75.07
2019-02-06T22:22:58.186Z,75.04
2019-02-06T22:25:25.183Z,75.12
2019-02-06T22:27:52.196Z,75.15
2019-02-06T22:30:21.103Z,75.22
2019-02-06T22:32:48.099Z,75.35
2019-02-06T22:35:15.044Z,75.37
2019-02-06T22:37:42.401Z,75.48
2019-02-06T22:40:11.697Z,75.30
2019-02-06T22:42:38.725Z,75.21
2019-02-06T22:45:07.782Z,75.45
2019-02-06T22:47:34.767Z,75.75
2019-02-06T22:50:01.735Z,75.69
2019-02-06T22:52:28.899Z,75.62
2019-02-06T22:54:56.186Z,75.48
2019-02-06T22:57:23.216Z,75.43
2019-02-06T22:59:50.199Z,75.51
2019-02-06T23:02:17.273Z,75.68
2019-02-06T23:04:44.269Z,75.83
2019-02-06T23:07:11.227Z,75.87
2019-02-06T23:09:38.467Z,75.74
2019-02-06T23:12:05.737Z,75.74
2019-02-06T23:14:33.022Z,75.76
2019-02-06T23:17:00.464Z,75.85
2019-02-06T23:19:27.409Z,75.70
2019-02-06T23:21:54.779Z,75.45
2019-02-06T23:24:21.813Z,75.43
2019-02-06T23:26:48.829Z,75.36
2019-02-06T23:29:16.162Z,75.43
2019-02-06T23:31:43.203Z,75.39
2019-02-06T23:34:10.183Z,75.31
2019-02-06T23:36:37.200Z,75.15
2019-02-06T23:42:31.749Z,75.05
2019-02-06T23:44:58.708Z,74.96
2019-02-06T23:47:25.794Z,75.03
2019-02-06T23:49:52.790Z,74.94
2019-02-06T23:52:19.892Z,74.55
2019-02-06T23:54:46.890Z,74.48
2019-02-06T23:57:14.154Z,74.07
2019-02-06T23:59:41.168Z,74.19
